Terminal Aerodrome Forecast
Issued by NWS

Current Version | Previous Version | Text Only | Print | Product List | Glossary On
Versions: 1 2 3 4 5 6 7 8 9 10 11 12
000
FTUS42 KMLB 292300
TAFISM
TAF
KISM 292336Z 3000/3024 VRB03KT P6SM SCT250
     FM301400 29009KT P6SM SCT040 BKN250
     FM301700 30011G19KT P6SM BKN040
     FM302200 31011G20KT P6SM SCT040
      AMD NOT SKED 3003/3012=

USA.gov is the U.S. government's official web portal to all federal, state and local government web resources and services.